Wayne, Ohio
Current Conditions -  °F | °C
As of 8:53 AM on Sunday 23 Nov 2014 (Local Time) from KTDZ Reporting Station
Overcast Overcast  
Wind Chill: 41°   Ceiling: 4500
Heat Index: 46°   Visibility: 10mi
Dew Point: 42°   Wind: 9mph
Humidity: 86%   Direction: 160°SSE
Pressure: 29.96"   Gusts: NA
Location:  41.3°N, 83.47°W
Report Text: KTDZ 231353Z AUTO 16008KT 10SM FEW035 BKN045 OVC055 08/06 A2996 RMK AO2 RAE53 SLP147 P0000 T00780056 TSNO
Loading
Personal Weather Stations






























Interactive Weather Map New forecast layout! Learn more

10-Day Weather Forecast

Advertisements
Track Severe Weather on mobile